Time;durP1;ratioP1;P1;durP2;ratioP2;P2;SDS_P1;SDS_P2;PMS_P1;PMS_P2;Temp;Humidity;BMP_temperature;BMP_pressure;BME280_temperature;BME280_humidity;BME280_pressure;Samples;Min_cycle;Max_cycle;Signal;HPM_P1;HPM_P2
2022/03/29 00:00:22;;;;;;;16.60;12.47;;;10.60;65.90;;;;;;4977968;28;20202;-88
2022/03/29 00:02:47;;;;;;;13.27;11.37;;;10.80;65.60;;;;;;4978011;28;20177;-92
2022/03/29 00:05:13;;;;;;;15.73;11.93;;;10.80;65.00;;;;;;4977022;28;20323;-91
2022/03/29 00:07:39;;;;;;;14.20;12.07;;;10.70;65.00;;;;;;4979439;28;20255;-92
2022/03/29 00:10:06;;;;;;;14.37;11.10;;;10.70;65.20;;;;;;4981355;28;20186;-87
2022/03/29 00:12:34;;;;;;;15.27;11.77;;;10.60;65.30;;;;;;4982235;28;20167;-84
2022/03/29 00:15:00;;;;;;;13.23;11.40;;;10.60;65.40;;;;;;4982307;28;20175;-85
2022/03/29 00:17:26;;;;;;;13.87;11.97;;;10.60;65.70;;;;;;4977873;28;20265;-85
2022/03/29 00:19:52;;;;;;;13.77;11.50;;;10.60;65.40;;;;;;4979348;28;20178;-85
2022/03/29 00:22:17;;;;;;;14.87;11.90;;;10.50;65.70;;;;;;4983344;28;20248;-85
2022/03/29 00:24:43;;;;;;;13.83;12.33;;;10.40;65.70;;;;;;4984006;28;20206;-85
2022/03/29 00:27:09;;;;;;;14.20;11.70;;;10.40;65.80;;;;;;4978933;28;20182;-89
2022/03/29 00:29:37;;;;;;;21.13;11.73;;;10.40;65.70;;;;;;4976718;28;20175;-93
2022/03/29 00:32:03;;;;;;;13.50;12.10;;;10.40;65.80;;;;;;4975460;28;20193;-93
2022/03/29 00:34:30;;;;;;;16.20;11.80;;;10.40;66.10;;;;;;4979866;28;20177;-86
2022/03/29 00:36:56;;;;;;;13.87;11.83;;;10.30;66.00;;;;;;4982926;28;20175;-83
2022/03/29 00:39:21;;;;;;;12.73;11.43;;;10.30;66.60;;;;;;4985451;28;20230;-84
2022/03/29 00:41:48;;;;;;;13.80;11.50;;;10.30;66.80;;;;;;4996768;28;20174;-84
2022/03/29 00:44:15;;;;;;;12.77;11.03;;;10.30;67.00;;;;;;4977855;28;20210;-84
2022/03/29 00:46:41;;;;;;;15.57;11.83;;;10.40;67.10;;;;;;4994814;28;20650;-85
2022/03/29 00:49:10;;;;;;;12.97;11.63;;;10.40;67.00;;;;;;4996526;28;20202;-91
2022/03/29 00:51:36;;;;;;;14.27;11.87;;;10.30;67.30;;;;;;5000036;28;20591;-84
2022/03/29 00:54:02;;;;;;;13.17;10.43;;;10.30;67.40;;;;;;4995602;28;20641;-89
2022/03/29 00:56:28;;;;;;;13.67;10.53;;;10.30;68.80;;;;;;4979879;28;20182;-92
2022/03/29 00:58:54;;;;;;;13.70;10.03;;;10.40;69.10;;;;;;4979859;28;20232;-92
2022/03/29 01:01:20;;;;;;;12.00;10.23;;;10.50;69.70;;;;;;4996824;28;20171;-93
2022/03/29 01:03:47;;;;;;;13.30;10.83;;;10.70;69.60;;;;;;4996702;28;20202;-89
2022/03/29 01:06:13;;;;;;;16.00;11.47;;;10.80;67.60;;;;;;4995603;28;20204;-90
2022/03/29 01:08:39;;;;;;;14.13;11.53;;;10.80;67.10;;;;;;4995688;28;20265;-84
2022/03/29 01:11:11;;;;;;;14.10;12.13;;;10.70;67.00;;;;;;4996299;28;20181;-89
2022/03/29 01:13:37;;;;;;;12.20;10.90;;;10.60;67.00;;;;;;4978615;28;20185;-90
2022/03/29 01:17:38;;;;;;;12.23;11.03;;;10.60;67.30;;;;;;4996124;28;20198;-86
2022/03/29 01:18:50;;;;;;;12.37;11.03;;;10.50;67.80;;;;;;4995186;28;20185;-91
2022/03/29 01:21:17;;;;;;;14.13;11.17;;;10.50;67.90;;;;;;4995515;28;20173;-91
2022/03/29 01:23:47;;;;;;;17.40;11.93;;;10.50;67.90;;;;;;4995257;28;20194;-88
2022/03/29 01:26:16;;;;;;;14.40;11.73;;;10.50;67.90;;;;;;4995334;28;20193;-85
2022/03/29 01:28:42;;;;;;;11.83;10.63;;;10.50;68.40;;;;;;4978350;28;20173;-86
2022/03/29 01:31:09;;;;;;;12.27;11.00;;;10.40;68.40;;;;;;4992925;28;20178;-87
2022/03/29 01:33:35;;;;;;;14.33;10.43;;;10.40;69.60;;;;;;4999321;28;20172;-90
2022/03/29 01:36:02;;;;;;;13.33;10.50;;;10.40;70.40;;;;;;4996853;28;20253;-91
2022/03/29 01:38:28;;;;;;;12.67;11.33;;;10.70;70.90;;;;;;4997464;28;20178;-91
2022/03/29 01:41:05;;;;;;;13.73;10.63;;;10.80;70.90;;;;;;4997249;28;20538;-89
2022/03/29 01:43:34;;;;;;;12.70;10.57;;;10.90;70.50;;;;;;5006311;28;20202;-85
2022/03/29 01:46:00;;;;;;;16.00;10.53;;;11.00;70.40;;;;;;4997476;28;20564;-87
2022/03/29 01:48:26;;;;;;;16.17;10.63;;;10.90;70.50;;;;;;4995365;28;20169;-89
2022/03/29 01:50:52;;;;;;;16.13;11.87;;;10.90;70.30;;;;;;4978682;28;20549;-91
2022/03/29 01:53:26;;;;;;;17.30;11.13;;;10.80;69.20;;;;;;4995529;28;20174;-85
2022/03/29 01:55:59;;;;;;;12.37;10.67;;;10.80;68.70;;;;;;4995043;28;20170;-86
2022/03/29 01:58:26;;;;;;;15.90;11.83;;;10.60;69.00;;;;;;4995368;28;20175;-86
2022/03/29 02:00:52;;;;;;;18.37;11.97;;;10.60;68.70;;;;;;5005155;28;20237;-88
2022/03/29 02:03:18;;;;;;;13.10;11.80;;;10.40;68.60;;;;;;5002706;28;20237;-86
2022/03/29 02:05:44;;;;;;;14.13;11.30;;;10.30;68.80;;;;;;5006541;28;20510;-85
2022/03/29 02:08:10;;;;;;;14.63;11.97;;;10.30;68.80;;;;;;5002814;28;20181;-89
2022/03/29 02:10:36;;;;;;;12.33;11.10;;;10.30;69.00;;;;;;4978023;28;20178;-88
2022/03/29 02:13:01;;;;;;;12.73;11.43;;;10.20;69.10;;;;;;4995040;28;20233;-90
2022/03/29 02:15:27;;;;;;;13.47;11.10;;;10.20;69.00;;;;;;4994990;28;20173;-88
2022/03/29 02:17:53;;;;;;;15.37;12.03;;;10.10;69.40;;;;;;4982080;28;20162;-85
2022/03/29 02:20:21;;;;;;;14.37;12.53;;;10.00;69.30;;;;;;5007517;28;20166;-89
2022/03/29 02:22:47;;;;;;;13.67;12.20;;;10.00;69.20;;;;;;4980317;28;20597;-90
2022/03/29 02:25:13;;;;;;;13.33;11.93;;;9.90;70.30;;;;;;4995937;28;20230;-90
2022/03/29 02:27:43;;;;;;;12.87;11.57;;;9.90;70.50;;;;;;4996236;28;20697;-90
2022/03/29 02:30:14;;;;;;;15.63;13.00;;;9.90;70.80;;;;;;4995954;28;20178;-92
2022/03/29 02:32:41;;;;;;;15.07;12.13;;;9.80;71.00;;;;;;4995537;28;20198;-89
2022/03/29 02:35:08;;;;;;;13.93;12.53;;;9.70;71.10;;;;;;4979115;28;20182;-92
2022/03/29 02:37:34;;;;;;;14.93;12.63;;;9.70;71.20;;;;;;4999096;28;20173;-91
2022/03/29 02:40:00;;;;;;;16.00;12.20;;;9.70;71.50;;;;;;4999108;28;20220;-92
2022/03/29 02:42:26;;;;;;;14.77;12.87;;;9.70;71.70;;;;;;4997811;28;20166;-93
2022/03/29 02:44:52;;;;;;;16.07;12.80;;;9.60;71.50;;;;;;4997147;28;20219;-91
2022/03/29 02:47:18;;;;;;;17.50;12.57;;;9.60;72.10;;;;;;4998063;28;20181;-93
2022/03/29 02:49:43;;;;;;;14.70;13.03;;;9.50;71.70;;;;;;4979784;28;20191;-88
2022/03/29 02:52:10;;;;;;;17.43;13.47;;;9.60;71.50;;;;;;4998156;28;20248;-87
2022/03/29 02:54:36;;;;;;;20.57;13.77;;;9.60;71.80;;;;;;4996073;28;20184;-88
2022/03/29 02:57:02;;;;;;;14.47;12.90;;;9.50;71.80;;;;;;5003476;28;20214;-91
2022/03/29 02:59:28;;;;;;;16.17;13.30;;;9.50;71.60;;;;;;4978883;28;20215;-84
2022/03/29 03:01:53;;;;;;;19.10;13.50;;;9.50;71.60;;;;;;4995942;28;20181;-85
2022/03/29 03:04:19;;;;;;;16.50;13.13;;;9.40;71.80;;;;;;4996028;28;20208;-85
2022/03/29 03:06:45;;;;;;;14.97;13.27;;;9.40;71.60;;;;;;4995950;28;20231;-87
2022/03/29 03:09:11;;;;;;;15.63;13.13;;;9.40;71.70;;;;;;4996639;28;20181;-88
2022/03/29 03:11:36;;;;;;;14.60;13.07;;;9.40;72.00;;;;;;5011761;28;20245;-84
2022/03/29 03:14:03;;;;;;;16.80;12.90;;;9.40;72.30;;;;;;5019579;28;20174;-84
2022/03/29 03:16:29;;;;;;;16.23;13.00;;;9.30;72.30;;;;;;5001818;28;20185;-85
2022/03/29 03:18:55;;;;;;;17.07;13.40;;;9.20;72.50;;;;;;5010093;28;20170;-88
2022/03/29 03:21:21;;;;;;;14.97;12.73;;;9.20;72.50;;;;;;5006294;28;20244;-84
2022/03/29 03:23:47;;;;;;;16.03;13.07;;;9.20;72.10;;;;;;5014137;28;20209;-85
2022/03/29 03:26:13;;;;;;;17.03;13.50;;;9.20;72.20;;;;;;5003030;28;20170;-84
2022/03/29 03:28:39;;;;;;;18.33;12.87;;;9.10;72.00;;;;;;5017339;28;20165;-84
2022/03/29 03:31:04;;;;;;;19.20;13.87;;;9.10;72.00;;;;;;5000801;28;20185;-85
2022/03/29 03:33:30;;;;;;;17.47;14.20;;;9.10;72.00;;;;;;5000661;28;20182;-85
2022/03/29 03:35:56;;;;;;;17.37;13.60;;;9.10;71.90;;;;;;4982150;28;20192;-85
2022/03/29 03:38:22;;;;;;;16.93;13.40;;;9.10;71.80;;;;;;5008475;28;20177;-86
2022/03/29 03:40:48;;;;;;;18.63;14.17;;;9.20;72.10;;;;;;5015596;28;20189;-88
2022/03/29 03:43:13;;;;;;;17.23;12.87;;;9.30;72.00;;;;;;5016289;28;20181;-86
2022/03/29 03:45:39;;;;;;;17.50;13.87;;;9.30;71.90;;;;;;5014660;28;20185;-84
2022/03/29 03:48:05;;;;;;;16.53;13.53;;;9.10;72.00;;;;;;5005884;28;20192;-91
2022/03/29 03:50:32;;;;;;;18.47;13.33;;;9.10;72.50;;;;;;5004625;28;20175;-90
2022/03/29 03:53:00;;;;;;;16.60;12.00;;;9.00;72.60;;;;;;5004092;28;20174;-91
2022/03/29 03:55:26;;;;;;;21.13;12.33;;;9.10;73.30;;;;;;5004528;28;20537;-93
2022/03/29 03:57:52;;;;;;;20.60;13.57;;;9.00;73.80;;;;;;4987321;28;20267;-89
2022/03/29 04:00:21;;;;;;;17.17;12.97;;;9.00;73.40;;;;;;5000488;28;20254;-92
2022/03/29 04:02:49;;;;;;;13.73;11.63;;;9.10;73.40;;;;;;5002022;28;20174;-86
2022/03/29 04:05:16;;;;;;;15.33;12.70;;;9.10;74.60;;;;;;4999689;28;20202;-88
2022/03/29 04:07:42;;;;;;;16.53;11.40;;;9.10;74.50;;;;;;4999716;28;20170;-88
2022/03/29 04:10:08;;;;;;;13.20;10.83;;;9.10;74.70;;;;;;4997267;28;20180;-87
2022/03/29 04:12:35;;;;;;;14.33;11.00;;;9.10;75.00;;;;;;4995970;28;20200;-87
2022/03/29 04:15:01;;;;;;;14.50;10.20;;;9.20;74.80;;;;;;4996042;28;20689;-88
2022/03/29 04:17:27;;;;;;;13.57;10.97;;;9.30;74.60;;;;;;4996231;28;20178;-85
2022/03/29 04:19:54;;;;;;;13.37;10.67;;;9.40;74.10;;;;;;4979859;28;20174;-88
2022/03/29 04:22:20;;;;;;;11.63;10.20;;;9.40;74.00;;;;;;4984390;28;20185;-89
2022/03/29 04:24:46;;;;;;;18.97;11.20;;;9.40;74.40;;;;;;4980309;28;20213;-88
2022/03/29 04:27:12;;;;;;;16.07;11.07;;;9.50;74.20;;;;;;4996512;28;20244;-88
2022/03/29 04:29:37;;;;;;;15.83;11.07;;;9.40;74.00;;;;;;4996255;28;20170;-87
2022/03/29 04:32:04;;;;;;;14.57;11.43;;;9.50;74.00;;;;;;4995900;28;20177;-88
2022/03/29 04:34:29;;;;;;;15.97;10.93;;;9.50;74.00;;;;;;4979726;28;20184;-87
2022/03/29 04:36:58;;;;;;;16.33;10.60;;;9.40;74.10;;;;;;4979373;28;20258;-86
2022/03/29 04:39:25;;;;;;;18.47;11.10;;;9.40;73.90;;;;;;4995990;28;20313;-85
2022/03/29 04:41:50;;;;;;;15.97;10.40;;;9.30;74.20;;;;;;4996370;28;20583;-89
2022/03/29 04:44:16;;;;;;;14.00;10.57;;;9.30;74.50;;;;;;4996318;28;20226;-86
2022/03/29 04:46:42;;;;;;;13.13;10.60;;;9.40;74.40;;;;;;4998774;28;20625;-91
2022/03/29 04:49:08;;;;;;;13.90;9.73;;;9.30;74.20;;;;;;4981563;28;20518;-88
2022/03/29 04:51:34;;;;;;;14.87;11.30;;;9.40;75.00;;;;;;5001616;28;20174;-91
2022/03/29 04:54:01;;;;;;;16.83;10.33;;;9.30;74.60;;;;;;5004251;28;20198;-92
2022/03/29 04:56:28;;;;;;;12.77;10.80;;;9.40;74.30;;;;;;5007273;28;20174;-92
2022/03/29 04:58:56;;;;;;;18.40;10.77;;;9.40;74.80;;;;;;4990359;28;20264;-86
2022/03/29 05:01:22;;;;;;;15.80;11.50;;;9.40;74.70;;;;;;5006036;28;20227;-90
2022/03/29 05:03:48;;;;;;;17.67;10.80;;;9.30;74.50;;;;;;4984106;28;20214;-85
2022/03/29 05:06:14;;;;;;;15.03;10.73;;;9.30;74.20;;;;;;5004128;28;20181;-84
2022/03/29 05:08:40;;;;;;;15.47;10.63;;;9.40;74.30;;;;;;5000504;28;20185;-86
2022/03/29 05:11:06;;;;;;;14.03;10.07;;;9.50;73.90;;;;;;4978843;28;20251;-91
2022/03/29 05:13:32;;;;;;;15.53;9.80;;;9.50;73.60;;;;;;4995103;28;20188;-84
2022/03/29 05:15:58;;;;;;;14.23;10.63;;;9.60;73.40;;;;;;4998038;28;20169;-83
2022/03/29 05:18:24;;;;;;;13.17;10.70;;;9.60;73.50;;;;;;4998080;28;20192;-88
2022/03/29 05:20:50;;;;;;;17.93;10.30;;;9.60;73.40;;;;;;5017862;28;20188;-85
2022/03/29 05:23:16;;;;;;;13.50;10.57;;;9.60;73.30;;;;;;4998215;28;20174;-91
2022/03/29 05:25:42;;;;;;;15.13;10.90;;;9.60;73.40;;;;;;5011618;28;20185;-85
2022/03/29 05:28:09;;;;;;;15.20;11.10;;;9.60;73.30;;;;;;5007033;28;20170;-85
2022/03/29 05:30:35;;;;;;;14.50;10.43;;;9.70;73.10;;;;;;5000990;28;20170;-86
2022/03/29 05:33:01;;;;;;;14.90;10.70;;;9.70;72.90;;;;;;4986127;28;20184;-90
2022/03/29 05:35:32;;;;;;;14.33;10.83;;;9.80;73.00;;;;;;5004257;28;20193;-86
2022/03/29 05:38:00;;;;;;;12.83;10.43;;;9.90;72.60;;;;;;4998435;28;20168;-83
2022/03/29 05:40:28;;;;;;;21.37;10.87;;;10.00;71.40;;;;;;4996612;28;20311;-86
2022/03/29 05:42:53;;;;;;;15.97;10.50;;;9.90;72.60;;;;;;4979196;28;20208;-90
2022/03/29 05:45:20;;;;;;;14.10;10.13;;;10.00;71.40;;;;;;4997379;28;20210;-88
2022/03/29 05:50:33;;;;;;;13.60;10.27;;;10.00;71.10;;;;;;5003494;28;20195;-85
2022/03/29 05:53:01;;;;;;;14.47;9.73;;;10.10;71.30;;;;;;4978510;28;20174;-85
2022/03/29 05:55:28;;;;;;;14.57;9.20;;;10.20;70.60;;;;;;4995842;28;20177;-90
2022/03/29 05:57:55;;;;;;;15.97;10.40;;;10.10;70.30;;;;;;4978866;28;20212;-91
2022/03/29 06:00:23;;;;;;;17.80;10.97;;;10.20;70.10;;;;;;4977740;28;20181;-88
2022/03/29 06:02:49;;;;;;;15.53;9.83;;;10.20;69.90;;;;;;4995046;28;20179;-88
2022/03/29 06:05:15;;;;;;;15.23;10.20;;;10.30;69.90;;;;;;4994507;28;20205;-88
2022/03/29 06:07:41;;;;;;;12.33;9.67;;;10.30;69.50;;;;;;4976658;28;20647;-90
2022/03/29 06:10:08;;;;;;;14.90;11.10;;;10.40;69.50;;;;;;4994268;28;20241;-86
2022/03/29 06:12:36;;;;;;;18.23;10.50;;;10.40;69.30;;;;;;4994749;28;20644;-90
2022/03/29 06:15:04;;;;;;;15.97;10.40;;;10.40;69.40;;;;;;4976451;28;20231;-87
2022/03/29 06:17:29;;;;;;;14.43;10.87;;;10.50;69.40;;;;;;4977137;28;20537;-86
2022/03/29 06:19:55;;;;;;;15.47;10.83;;;10.50;69.10;;;;;;4976638;28;20272;-85
2022/03/29 06:22:22;;;;;;;19.40;11.50;;;10.60;68.90;;;;;;4994294;28;20177;-87
2022/03/29 06:24:48;;;;;;;15.70;12.50;;;10.70;68.80;;;;;;4994817;28;20315;-87
2022/03/29 06:27:14;;;;;;;28.63;14.87;;;10.80;69.30;;;;;;4977450;28;20189;-86
2022/03/29 06:29:40;;;;;;;32.03;15.40;;;10.90;69.60;;;;;;4994939;28;20192;-87
2022/03/29 06:32:06;;;;;;;30.53;15.90;;;10.90;69.80;;;;;;4996624;28;20178;-88
2022/03/29 06:34:33;;;;;;;31.50;16.13;;;10.90;69.70;;;;;;4982532;28;20173;-89
2022/03/29 06:36:59;;;;;;;29.77;15.30;;;10.90;69.50;;;;;;4999272;28;20176;-87
2022/03/29 06:39:26;;;;;;;29.83;15.83;;;10.90;69.70;;;;;;4999655;28;20229;-85
2022/03/29 06:41:55;;;;;;;33.00;16.93;;;10.90;69.70;;;;;;4997617;28;20231;-87
2022/03/29 06:44:21;;;;;;;27.03;15.50;;;10.90;69.80;;;;;;4996378;28;20202;-88
2022/03/29 06:46:49;;;;;;;28.40;16.33;;;10.90;69.80;;;;;;4999122;28;20176;-87
2022/03/29 06:49:15;;;;;;;23.77;16.17;;;11.00;70.40;;;;;;4981232;28;20172;-84
2022/03/29 06:51:44;;;;;;;29.60;16.37;;;10.90;70.70;;;;;;4998020;28;20213;-86
2022/03/29 06:54:09;;;;;;;28.63;16.80;;;10.90;70.60;;;;;;4997540;28;20177;-87
2022/03/29 06:56:35;;;;;;;30.50;17.57;;;11.00;70.70;;;;;;4999522;28;20170;-85
2022/03/29 06:59:02;;;;;;;31.37;17.13;;;11.00;70.70;;;;;;4999746;28;20181;-85
2022/03/29 07:01:29;;;;;;;38.00;17.40;;;11.10;71.00;;;;;;4981241;28;20584;-84
2022/03/29 07:03:59;;;;;;;28.03;17.33;;;11.10;70.90;;;;;;4981303;28;20253;-84
2022/03/29 07:06:31;;;;;;;27.37;17.13;;;11.20;71.10;;;;;;4998487;28;20181;-86
2022/03/29 07:11:43;;;;;;;25.00;15.03;;;11.40;70.80;;;;;;5001711;28;20169;-87
2022/03/29 07:14:09;;;;;;;25.47;15.93;;;11.40;72.90;;;;;;5009431;28;20192;-84
2022/03/29 07:16:35;;;;;;;30.43;16.73;;;11.40;71.10;;;;;;5013190;28;20170;-85
2022/03/29 07:19:01;;;;;;;26.07;15.47;;;11.50;70.90;;;;;;5008826;28;20181;-89
2022/03/29 07:21:27;;;;;;;27.87;15.83;;;11.70;71.20;;;;;;4988933;28;20179;-85
2022/03/29 07:23:56;;;;;;;26.87;15.37;;;11.70;69.50;;;;;;4984749;28;20211;-87
2022/03/29 07:26:22;;;;;;;27.97;16.20;;;11.80;69.00;;;;;;4984088;28;20177;-87
2022/03/29 07:28:50;;;;;;;27.80;15.70;;;11.80;68.80;;;;;;4983493;28;20646;-87
2022/03/29 07:31:16;;;;;;;30.20;16.17;;;11.80;69.20;;;;;;4982962;28;20174;-85
2022/03/29 07:33:42;;;;;;;32.77;16.10;;;11.90;69.50;;;;;;5000868;28;20277;-84
2022/03/29 07:36:08;;;;;;;25.20;15.77;;;11.90;69.00;;;;;;5000651;28;20216;-85
2022/03/29 07:38:34;;;;;;;29.13;16.90;;;12.00;68.70;;;;;;4997471;28;20179;-85
2022/03/29 07:41:00;;;;;;;34.50;16.23;;;12.10;68.70;;;;;;4997207;28;20567;-85
2022/03/29 07:43:26;;;;;;;43.10;16.83;;;12.10;68.50;;;;;;4998417;28;20181;-89
2022/03/29 07:45:51;;;;;;;29.80;15.70;;;12.20;69.00;;;;;;4996900;28;20684;-88
2022/03/29 07:48:17;;;;;;;30.70;16.10;;;12.40;68.40;;;;;;5000258;28;20209;-90
2022/03/29 07:50:43;;;;;;;37.60;16.70;;;12.40;68.50;;;;;;4983052;28;20189;-89
2022/03/29 07:53:09;;;;;;;34.13;16.97;;;12.50;68.10;;;;;;4997114;28;20578;-85
2022/03/29 07:55:40;;;;;;;35.37;17.40;;;12.60;68.20;;;;;;4995855;28;20253;-88
2022/03/29 07:58:06;;;;;;;34.00;16.13;;;12.70;67.90;;;;;;4996883;28;20172;-87
2022/03/29 08:00:32;;;;;;;27.87;16.07;;;12.80;67.60;;;;;;4979269;28;20190;-87
2022/03/29 08:03:10;;;;;;;24.77;17.27;;;12.90;67.20;;;;;;4997433;28;20177;-88
2022/03/29 08:05:37;;;;;;;26.53;16.17;;;13.10;66.50;;;;;;4979994;28;20203;-89
2022/03/29 08:08:04;;;;;;;25.80;15.87;;;13.20;66.60;;;;;;4996650;28;20523;-88
2022/03/29 08:10:31;;;;;;;27.00;16.60;;;13.30;66.30;;;;;;4996879;28;20260;-88
2022/03/29 08:12:59;;;;;;;27.13;15.07;;;13.40;66.00;;;;;;4997350;28;20248;-88
2022/03/29 08:15:25;;;;;;;33.70;16.73;;;13.50;65.60;;;;;;4997479;28;20170;-92
2022/03/29 08:17:51;;;;;;;26.50;15.00;;;13.60;65.00;;;;;;4997488;28;20184;-91
2022/03/29 08:20:18;;;;;;;27.53;15.30;;;13.80;65.30;;;;;;5001718;28;20178;-90
2022/03/29 08:22:47;;;;;;;32.83;16.27;;;13.90;65.20;;;;;;5015372;28;20177;-84
2022/03/29 08:25:14;;;;;;;24.53;14.37;;;14.00;65.00;;;;;;4998928;28;20206;-85
2022/03/29 08:27:42;;;;;;;25.57;15.53;;;14.10;64.50;;;;;;5012998;28;20201;-88
2022/03/29 08:30:10;;;;;;;23.77;15.53;;;14.20;63.80;;;;;;5002564;28;20245;-92
2022/03/29 08:32:37;;;;;;;24.77;15.27;;;14.30;63.90;;;;;;5002729;28;20181;-93
2022/03/29 08:35:04;;;;;;;23.07;13.83;;;14.50;63.90;;;;;;5003358;28;20176;-85
2022/03/29 08:37:30;;;;;;;24.17;14.87;;;14.60;63.70;;;;;;5007090;28;20194;-84
2022/03/29 08:39:56;;;;;;;21.77;15.67;;;14.60;62.50;;;;;;5002115;28;20217;-84
2022/03/29 08:42:23;;;;;;;26.73;14.60;;;14.70;62.50;;;;;;4983345;28;20582;-86
2022/03/29 08:44:50;;;;;;;26.33;14.40;;;14.80;62.40;;;;;;5000264;28;20202;-85
2022/03/29 08:47:17;;;;;;;19.60;14.67;;;14.90;63.00;;;;;;4981669;28;20179;-83
2022/03/29 08:49:49;;;;;;;22.27;13.33;;;14.90;62.80;;;;;;4996155;28;20257;-86
2022/03/29 08:52:17;;;;;;;23.57;13.20;;;15.00;62.30;;;;;;4978516;28;20245;-86
2022/03/29 08:54:44;;;;;;;27.17;13.87;;;15.10;61.60;;;;;;4996478;28;20240;-85
2022/03/29 08:57:11;;;;;;;23.70;13.40;;;15.20;61.10;;;;;;4979985;28;20544;-85
2022/03/29 08:59:37;;;;;;;23.20;12.93;;;15.30;60.50;;;;;;4978296;28;20208;-86
2022/03/29 09:02:15;;;;;;;20.10;13.17;;;15.30;60.10;;;;;;4995422;28;20171;-86
2022/03/29 09:04:41;;;;;;;25.53;13.30;;;15.40;60.20;;;;;;4996104;28;20205;-85
2022/03/29 09:07:07;;;;;;;23.83;14.50;;;15.40;60.50;;;;;;4998631;28;20177;-85
2022/03/29 09:09:34;;;;;;;28.70;14.67;;;15.50;60.90;;;;;;4998176;28;20553;-84
2022/03/29 09:12:16;;;;;;;28.27;14.57;;;15.50;61.30;;;;;;4998943;28;20170;-84
2022/03/29 09:14:57;;;;;;;27.23;14.83;;;15.60;61.50;;;;;;4996583;28;20156;-84
2022/03/29 09:17:27;;;;;;;36.57;15.53;;;15.60;60.70;;;;;;5002001;28;20282;-87
2022/03/29 09:19:55;;;;;;;24.47;14.60;;;15.70;61.00;;;;;;5002482;28;20173;-85
2022/03/29 09:22:40;;;;;;;21.17;14.73;;;15.80;60.30;;;;;;4996738;28;20175;-86
2022/03/29 09:25:08;;;;;;;20.93;14.67;;;15.80;60.20;;;;;;4978593;28;20668;-84
2022/03/29 09:27:49;;;;;;;20.97;14.17;;;15.90;60.70;;;;;;4996186;28;20622;-84
2022/03/29 09:30:16;;;;;;;20.93;13.70;;;16.00;60.50;;;;;;4994578;28;20177;-84
2022/03/29 09:33:01;;;;;;;21.90;13.77;;;16.10;59.80;;;;;;4996514;28;20592;-85
2022/03/29 09:35:28;;;;;;;19.67;13.73;;;16.10;59.20;;;;;;4995929;28;20159;-84
2022/03/29 09:37:54;;;;;;;19.87;13.43;;;16.20;59.80;;;;;;4995927;28;20202;-84
2022/03/29 09:40:21;;;;;;;25.73;13.50;;;16.30;58.80;;;;;;4975331;28;20234;-87
2022/03/29 09:43:10;;;;;;;20.73;13.43;;;16.40;58.70;;;;;;4975193;28;20216;-85
2022/03/29 09:45:47;;;;;;;22.57;13.67;;;16.50;58.90;;;;;;4976695;28;20590;-85
2022/03/29 09:48:32;;;;;;;21.80;12.67;;;16.60;59.40;;;;;;4976078;28;20553;-90
2022/03/29 09:51:07;;;;;;;17.77;12.47;;;16.70;59.00;;;;;;4973625;28;20183;-87
2022/03/29 09:53:37;;;;;;;17.27;12.10;;;16.90;58.80;;;;;;4975400;28;20163;-86
2022/03/29 09:56:08;;;;;;;20.03;12.63;;;17.00;58.60;;;;;;4973817;28;20231;-86
2022/03/29 09:58:34;;;;;;;16.47;12.17;;;17.10;58.10;;;;;;4975557;28;20245;-87
2022/03/29 10:01:01;;;;;;;21.60;12.50;;;17.20;58.20;;;;;;4975707;28;20256;-86
2022/03/29 10:03:28;;;;;;;18.87;12.37;;;17.20;58.40;;;;;;4976104;28;20177;-87
2022/03/29 10:06:01;;;;;;;17.13;12.03;;;17.30;58.00;;;;;;4975682;28;20757;-86
2022/03/29 10:11:15;;;;;;;15.93;12.13;;;17.40;57.90;;;;;;4986667;28;20194;-85
2022/03/29 10:13:41;;;;;;;19.87;12.20;;;17.50;57.90;;;;;;4982801;28;20193;-85
2022/03/29 10:16:14;;;;;;;18.20;12.67;;;17.60;57.90;;;;;;4988663;28;20532;-90
2022/03/29 10:18:42;;;;;;;17.73;12.03;;;17.70;57.70;;;;;;4978188;28;20165;-86
2022/03/29 10:21:11;;;;;;;16.83;11.43;;;17.70;55.90;;;;;;4976526;28;20170;-90
2022/03/29 10:23:37;;;;;;;18.83;12.13;;;17.70;55.60;;;;;;4974588;28;20214;-87
2022/03/29 10:26:04;;;;;;;15.20;11.60;;;17.80;56.00;;;;;;4976847;28;20242;-90
2022/03/29 10:28:30;;;;;;;12.53;11.10;;;17.80;54.50;;;;;;4982660;28;20173;-86
2022/03/29 10:30:57;;;;;;;12.93;10.90;;;17.90;54.70;;;;;;4980064;28;20175;-92
2022/03/29 10:33:30;;;;;;;16.23;11.07;;;17.90;53.10;;;;;;4976752;28;20175;-91
2022/03/29 10:36:14;;;;;;;16.47;10.63;;;18.00;53.10;;;;;;4975386;28;20583;-92
2022/03/29 10:38:43;;;;;;;15.27;10.80;;;18.10;52.90;;;;;;4978288;28;20237;-90
2022/03/29 10:41:30;;;;;;;12.70;10.37;;;18.20;52.10;;;;;;4995755;28;20177;-88
2022/03/29 10:44:10;;;;;;;14.47;10.07;;;18.20;51.90;;;;;;4994587;28;20307;-89
2022/03/29 10:46:48;;;;;;;13.53;10.83;;;18.20;51.50;;;;;;4995985;28;20184;-89
2022/03/29 10:49:20;;;;;;;15.13;10.60;;;18.20;50.40;;;;;;4998533;28;20213;-88
2022/03/29 10:51:50;;;;;;;14.43;10.67;;;18.20;52.60;;;;;;4996396;28;20177;-89
2022/03/29 10:54:36;;;;;;;12.17;10.93;;;18.30;52.30;;;;;;4978522;28;20177;-88
2022/03/29 10:57:25;;;;;;;14.13;10.93;;;18.40;52.50;;;;;;4998944;28;20180;-90
2022/03/29 10:59:58;;;;;;;15.10;11.17;;;18.50;52.90;;;;;;5000466;28;20161;-89
2022/03/29 11:02:25;;;;;;;13.40;11.50;;;18.50;52.60;;;;;;5001618;28;20166;-86
2022/03/29 11:05:00;;;;;;;16.07;11.20;;;18.70;52.60;;;;;;4982087;28;20275;-87
2022/03/29 11:07:26;;;;;;;12.53;10.40;;;18.90;51.60;;;;;;4996290;28;20184;-88
2022/03/29 11:10:13;;;;;;;20.80;11.10;;;18.90;51.50;;;;;;4994298;28;20181;-90
2022/03/29 11:12:53;;;;;;;12.73;11.00;;;18.80;52.50;;;;;;4994650;28;20708;-88
2022/03/29 11:15:25;;;;;;;17.50;11.90;;;18.90;52.50;;;;;;4976898;28;20184;-84
2022/03/29 11:17:51;;;;;;;14.07;12.10;;;19.00;52.80;;;;;;4994375;28;20174;-85
2022/03/29 11:20:34;;;;;;;17.10;12.73;;;19.10;52.20;;;;;;4993729;28;20257;-84
2022/03/29 11:23:01;;;;;;;22.50;13.37;;;19.20;52.70;;;;;;4994372;28;20593;-83
2022/03/29 11:25:27;;;;;;;15.93;12.13;;;19.40;51.50;;;;;;4975853;28;20288;-85
2022/03/29 11:27:53;;;;;;;15.20;12.50;;;19.40;51.30;;;;;;4975766;28;20670;-86
2022/03/29 11:30:19;;;;;;;17.40;12.37;;;19.50;50.60;;;;;;4995287;28;20177;-86
2022/03/29 11:32:46;;;;;;;16.87;12.67;;;19.60;51.60;;;;;;4981462;28;20186;-89
2022/03/29 11:35:15;;;;;;;18.27;13.10;;;19.70;51.30;;;;;;5002008;28;20212;-90
2022/03/29 11:37:43;;;;;;;17.03;13.73;;;19.80;51.60;;;;;;4991316;28;20181;-92
2022/03/29 11:40:19;;;;;;;18.20;13.57;;;19.80;50.80;;;;;;5003626;28;20245;-93
2022/03/29 11:42:50;;;;;;;17.67;12.70;;;19.90;51.20;;;;;;4999079;28;20204;-89
2022/03/29 11:45:26;;;;;;;16.93;13.80;;;20.10;50.70;;;;;;4997652;28;20201;-91
2022/03/29 11:47:53;;;;;;;18.47;13.60;;;20.20;49.50;;;;;;4998331;28;20162;-91
2022/03/29 11:50:37;;;;;;;17.93;14.90;;;20.20;49.40;;;;;;5002981;28;20197;-85
2022/03/29 11:53:22;;;;;;;18.20;14.37;;;20.20;49.20;;;;;;5014420;28;20291;-88
2022/03/29 11:56:00;;;;;;;17.07;14.07;;;20.30;49.00;;;;;;5013730;28;20177;-91
2022/03/29 11:58:49;;;;;;;19.03;14.07;;;20.20;49.90;;;;;;5006414;28;20178;-87
2022/03/29 12:01:37;;;;;;;21.80;14.07;;;20.30;50.40;;;;;;5007425;28;20170;-87
2022/03/29 12:04:05;;;;;;;21.17;14.10;;;20.20;49.60;;;;;;5015871;28;20210;-89
2022/03/29 12:06:32;;;;;;;18.33;13.63;;;20.30;49.60;;;;;;5012057;28;20177;-85
2022/03/29 12:09:04;;;;;;;21.00;14.30;;;20.30;49.90;;;;;;4998323;28;20168;-83
2022/03/29 12:11:32;;;;;;;20.93;13.23;;;20.40;49.20;;;;;;4997246;28;20228;-84
2022/03/29 12:14:10;;;;;;;15.43;13.50;;;20.50;49.80;;;;;;4980843;28;20188;-87
2022/03/29 12:16:47;;;;;;;17.73;12.73;;;20.60;49.10;;;;;;4980013;28;20245;-84
2022/03/29 12:19:20;;;;;;;17.70;13.57;;;20.60;49.00;;;;;;4996521;28;20192;-84
2022/03/29 12:21:51;;;;;;;19.43;14.77;;;20.70;49.00;;;;;;4996352;28;20170;-84
2022/03/29 12:24:18;;;;;;;16.23;13.27;;;20.80;48.90;;;;;;4997430;28;20190;-82
2022/03/29 12:27:01;;;;;;;15.00;13.20;;;20.90;48.90;;;;;;4995969;28;20170;-84
2022/03/29 12:29:27;;;;;;;14.67;12.43;;;20.90;47.60;;;;;;4995404;28;20162;-83
2022/03/29 12:31:55;;;;;;;16.27;13.10;;;21.00;47.50;;;;;;4995863;28;20166;-82
2022/03/29 12:34:27;;;;;;;14.20;12.07;;;21.20;47.30;;;;;;4995539;28;20545;-83
2022/03/29 12:36:58;;;;;;;15.50;12.00;;;21.20;47.20;;;;;;4978387;28;20232;-87
2022/03/29 12:39:32;;;;;;;22.00;13.33;;;21.20;46.80;;;;;;4996560;28;20253;-86
2022/03/29 12:41:57;;;;;;;14.90;13.30;;;21.30;47.30;;;;;;4995255;28;20353;-84
2022/03/29 12:44:37;;;;;;;18.80;12.57;;;21.30;47.60;;;;;;4996468;28;20749;-88